ISR178 LYTV-LLBG
Flight info
| Callsign | ISR178 |
|---|---|
| Flight time | N/A |
| Altitude | 37000 |
| Route | LASTI DCT LEBGA DCT PETAK DCT TRN DCT PINDO DCT AKINA DCT VANZA DCT PIKOG L609 ZUKKO |
| Aircraft | A320/M-SDE3FGHIRWY/LB1 |
Departure
| Time | 2026-05-07 17:58 |
|---|---|
| Airport | Tivat Airport (LYTV) |
Arrival
| Time | N/A |
|---|---|
| Airport | Ben Gurion International Airport (LLBG) |
| Time | Latitude | Longitude | Altitude | Speed | Heading |
|---|---|---|---|---|---|
| 2026-05-07 17:58 | 42.31177 | 18.58551 | 6967 ft | 235 kts | 175° |
| 2026-05-07 17:58 | 42.29529 | 18.58833 | 7605 ft | 241 kts | 176° |
| 2026-05-07 17:59 | 42.27849 | 18.59120 | 8313 ft | 246 kts | 177° |
| 2026-05-07 17:59 | 42.26124 | 18.59409 | 8965 ft | 252 kts | 177° |
| 2026-05-07 17:59 | 42.24384 | 18.59877 | 9612 ft | 261 kts | 163° |
| 2026-05-07 17:59 | 42.22778 | 18.61127 | 10171 ft | 277 kts | 144° |
| 2026-05-07 18:00 | 42.21501 | 18.63231 | 10435 ft | 301 kts | 124° |
| 2026-05-07 18:00 | 42.20423 | 18.65669 | 10963 ft | 307 kts | 124° |
| 2026-05-07 18:00 | 42.19312 | 18.68158 | 11602 ft | 309 kts | 125° |
| 2026-05-07 18:00 | 42.18187 | 18.70659 | 12253 ft | 312 kts | 125° |
| 2026-05-07 18:01 | 42.17048 | 18.73176 | 12904 ft | 314 kts | 125° |
| 2026-05-07 18:01 | 42.15914 | 18.75667 | 13542 ft | 317 kts | 126° |
| 2026-05-07 18:01 | 42.14721 | 18.78187 | 13995 ft | 324 kts | 132° |
| 2026-05-07 18:01 | 42.13203 | 18.80524 | 14113 ft | 340 kts | 136° |
| 2026-05-07 18:02 | 42.09846 | 18.85472 | 14502 ft | 371 kts | 136° |
| 2026-05-07 18:02 | 42.08095 | 18.88048 | 14951 ft | 375 kts | 136° |
| 2026-05-07 18:02 | 42.06325 | 18.90659 | 15424 ft | 379 kts | 136° |
| 2026-05-07 18:03 | 42.04543 | 18.93293 | 15889 ft | 383 kts | 136° |
| 2026-05-07 18:03 | 42.02759 | 18.95933 | 16344 ft | 386 kts | 136° |
| 2026-05-07 18:03 | 42.00927 | 18.98640 | 16813 ft | 390 kts | 136° |
| 2026-05-07 18:03 | 41.99117 | 19.01311 | 17279 ft | 393 kts | 136° |
| 2026-05-07 18:04 | 41.97267 | 19.04040 | 17762 ft | 397 kts | 136° |
| 2026-05-07 18:04 | 41.95396 | 19.06793 | 18242 ft | 400 kts | 136° |
| 2026-05-07 18:04 | 41.93509 | 19.09563 | 18683 ft | 403 kts | 136° |
| 2026-05-07 18:04 | 41.91604 | 19.12349 | 19127 ft | 406 kts | 136° |
| 2026-05-07 18:05 | 41.89683 | 19.15153 | 19545 ft | 409 kts | 136° |
| 2026-05-07 18:05 | 41.87744 | 19.17969 | 19989 ft | 411 kts | 137° |
| 2026-05-07 18:05 | 41.85747 | 19.20729 | 20455 ft | 413 kts | 139° |
| 2026-05-07 18:05 | 41.83702 | 19.23434 | 20924 ft | 414 kts | 140° |
| 2026-05-07 18:06 | 41.81620 | 19.26120 | 21393 ft | 416 kts | 140° |
| 2026-05-07 18:06 | 41.79527 | 19.28806 | 21852 ft | 418 kts | 140° |
| 2026-05-07 18:06 | 41.77424 | 19.31509 | 22283 ft | 419 kts | 141° |
| 2026-05-07 18:06 | 41.75267 | 19.34135 | 22712 ft | 420 kts | 143° |
| 2026-05-07 18:07 | 41.73043 | 19.36686 | 23127 ft | 421 kts | 145° |
| 2026-05-07 18:07 | 41.70786 | 19.39188 | 23529 ft | 422 kts | 145° |
| 2026-05-07 18:07 | 41.68541 | 19.41648 | 23896 ft | 424 kts | 146° |
| 2026-05-07 18:07 | 41.66258 | 19.44158 | 24243 ft | 425 kts | 145° |
| 2026-05-07 18:08 | 41.63976 | 19.46691 | 24588 ft | 427 kts | 145° |
| 2026-05-07 18:08 | 41.61680 | 19.49266 | 24969 ft | 427 kts | 145° |
| 2026-05-07 18:08 | 41.59409 | 19.51831 | 25322 ft | 428 kts | 144° |
| 2026-05-07 18:08 | 41.57167 | 19.54365 | 25656 ft | 429 kts | 144° |
| 2026-05-07 18:09 | 41.54882 | 19.56944 | 25990 ft | 430 kts | 144° |
| 2026-05-07 18:09 | 41.52596 | 19.59517 | 26312 ft | 431 kts | 144° |
| 2026-05-07 18:09 | 41.50296 | 19.62097 | 26680 ft | 432 kts | 144° |
| 2026-05-07 18:09 | 41.47993 | 19.64678 | 27025 ft | 432 kts | 144° |
| 2026-05-07 18:10 | 41.45684 | 19.67257 | 27364 ft | 433 kts | 144° |
| 2026-05-07 18:10 | 41.43369 | 19.69837 | 27687 ft | 435 kts | 144° |
| 2026-05-07 18:10 | 41.41074 | 19.72520 | 28069 ft | 437 kts | 139° |
| 2026-05-07 18:10 | 41.38958 | 19.75410 | 28537 ft | 436 kts | 139° |
| 2026-05-07 18:11 | 41.36866 | 19.78252 | 29005 ft | 434 kts | 139° |
| 2026-05-07 18:11 | 41.35440 | 19.80179 | 29309 ft | 432 kts | 139° |
| 2026-05-07 18:11 | 41.32648 | 19.83929 | 29943 ft | 429 kts | 139° |
| 2026-05-07 18:11 | 41.30525 | 19.86772 | 30397 ft | 427 kts | 139° |
| 2026-05-07 18:12 | 41.28464 | 19.89537 | 30798 ft | 426 kts | 139° |
| 2026-05-07 18:12 | 41.26356 | 19.92364 | 31199 ft | 424 kts | 139° |
| 2026-05-07 18:12 | 41.24305 | 19.95114 | 31545 ft | 424 kts | 139° |
| 2026-05-07 18:12 | 41.22231 | 19.97895 | 31894 ft | 424 kts | 139° |
| 2026-05-07 18:13 | 41.20153 | 20.00679 | 32283 ft | 423 kts | 139° |
| 2026-05-07 18:13 | 41.18088 | 20.03443 | 32694 ft | 422 kts | 139° |
| 2026-05-07 18:13 | 41.16025 | 20.06204 | 33095 ft | 420 kts | 139° |
| 2026-05-07 18:13 | 41.13971 | 20.08948 | 33492 ft | 419 kts | 139° |
| 2026-05-07 18:14 | 41.11918 | 20.11687 | 33891 ft | 418 kts | 139° |
| 2026-05-07 18:14 | 41.09871 | 20.14415 | 34221 ft | 416 kts | 139° |
| 2026-05-07 18:14 | 41.07832 | 20.17128 | 34548 ft | 415 kts | 139° |
| 2026-05-07 18:14 | 41.05801 | 20.19823 | 34795 ft | 415 kts | 139° |
| 2026-05-07 18:15 | 41.03757 | 20.22534 | 35009 ft | 416 kts | 139° |
| 2026-05-07 18:15 | 41.01705 | 20.25254 | 35202 ft | 418 kts | 139° |
| 2026-05-07 18:15 | 40.99645 | 20.27983 | 35398 ft | 419 kts | 139° |
| 2026-05-07 18:15 | 40.97580 | 20.30720 | 35588 ft | 421 kts | 139° |
| 2026-05-07 18:16 | 40.95511 | 20.33465 | 35787 ft | 422 kts | 139° |
| 2026-05-07 18:16 | 40.93433 | 20.36221 | 35974 ft | 423 kts | 139° |
| 2026-05-07 18:16 | 40.91347 | 20.38982 | 36151 ft | 425 kts | 139° |
| 2026-05-07 18:16 | 40.89256 | 20.41746 | 36322 ft | 426 kts | 139° |
| 2026-05-07 18:17 | 40.87153 | 20.44525 | 36512 ft | 427 kts | 139° |
| 2026-05-07 18:17 | 40.85046 | 20.47299 | 36690 ft | 428 kts | 139° |
| 2026-05-07 18:17 | 40.82961 | 20.50039 | 36853 ft | 429 kts | 139° |
| 2026-05-07 18:17 | 40.80842 | 20.52818 | 36999 ft | 431 kts | 139° |
| 2026-05-07 18:18 | 40.78708 | 20.55614 | 37144 ft | 432 kts | 139° |
| 2026-05-07 18:18 | 40.74397 | 20.61256 | 37178 ft | 441 kts | 139° |
| 2026-05-07 18:19 | 40.70006 | 20.67021 | 37180 ft | 449 kts | 139° |
| 2026-05-07 18:19 | 40.65571 | 20.72835 | 37179 ft | 450 kts | 139° |
| 2026-05-07 18:20 | 40.61126 | 20.78640 | 37187 ft | 450 kts | 139° |
| 2026-05-07 18:20 | 40.56673 | 20.84421 | 37181 ft | 450 kts | 140° |
| 2026-05-07 18:21 | 40.52245 | 20.90162 | 37186 ft | 450 kts | 140° |
| 2026-05-07 18:21 | 40.47830 | 20.96013 | 37190 ft | 453 kts | 134° |
| 2026-05-07 18:22 | 40.43891 | 21.02481 | 37182 ft | 454 kts | 133° |
| 2026-05-07 18:22 | 40.39942 | 21.08961 | 37182 ft | 455 kts | 133° |
| 2026-05-07 18:23 | 40.35979 | 21.15436 | 37185 ft | 456 kts | 133° |
| 2026-05-07 18:23 | 40.32012 | 21.21918 | 37188 ft | 456 kts | 133° |
| 2026-05-07 18:24 | 40.28034 | 21.28415 | 37186 ft | 457 kts | 133° |
| 2026-05-07 18:24 | 40.24062 | 21.34897 | 37183 ft | 456 kts | 133° |
| 2026-05-07 18:25 | 40.20081 | 21.41361 | 37188 ft | 456 kts | 133° |
| 2026-05-07 18:25 | 40.16085 | 21.47822 | 37195 ft | 456 kts | 133° |
| 2026-05-07 18:26 | 40.12086 | 21.54280 | 37178 ft | 457 kts | 133° |
| 2026-05-07 18:26 | 40.08079 | 21.60741 | 37183 ft | 458 kts | 133° |
| 2026-05-07 18:27 | 40.04095 | 21.67162 | 37180 ft | 457 kts | 133° |
| 2026-05-07 18:27 | 40.00083 | 21.73606 | 37177 ft | 457 kts | 133° |
| 2026-05-07 18:28 | 39.96068 | 21.80036 | 37168 ft | 457 kts | 133° |
| 2026-05-07 18:28 | 39.92043 | 21.86474 | 37165 ft | 458 kts | 133° |
| 2026-05-07 18:29 | 39.88014 | 21.92918 | 37161 ft | 459 kts | 133° |
| 2026-05-07 18:29 | 39.83976 | 21.99355 | 37141 ft | 459 kts | 133° |
| 2026-05-07 18:30 | 39.79933 | 22.05778 | 37147 ft | 459 kts | 133° |
| 2026-05-07 18:30 | 39.75913 | 22.12173 | 37145 ft | 460 kts | 133° |
| 2026-05-07 18:31 | 39.71850 | 22.18612 | 37144 ft | 460 kts | 133° |
| 2026-05-07 18:31 | 39.67784 | 22.25034 | 37161 ft | 460 kts | 133° |
| 2026-05-07 18:32 | 39.63724 | 22.31456 | 37151 ft | 460 kts | 133° |
| 2026-05-07 18:32 | 39.59650 | 22.37877 | 37155 ft | 460 kts | 133° |
| 2026-05-07 18:33 | 39.55568 | 22.44274 | 37153 ft | 460 kts | 133° |
| 2026-05-07 18:33 | 39.51489 | 22.50667 | 37116 ft | 461 kts | 133° |
| 2026-05-07 18:34 | 39.47418 | 22.57040 | 37116 ft | 463 kts | 133° |
| 2026-05-07 18:34 | 39.43303 | 22.63471 | 37118 ft | 464 kts | 133° |
| 2026-05-07 18:35 | 39.39170 | 22.69913 | 37128 ft | 465 kts | 133° |
| 2026-05-07 18:35 | 39.35042 | 22.76345 | 37113 ft | 465 kts | 133° |
| 2026-05-07 18:36 | 39.30902 | 22.82765 | 37105 ft | 465 kts | 133° |
| 2026-05-07 18:36 | 39.26761 | 22.89175 | 37116 ft | 465 kts | 133° |
| 2026-05-07 18:37 | 39.22617 | 22.95591 | 37107 ft | 465 kts | 133° |
| 2026-05-07 18:37 | 39.19162 | 23.00908 | 37104 ft | 466 kts | 133° |
| 2026-05-07 18:38 | 39.14318 | 23.08365 | 37107 ft | 467 kts | 133° |
| 2026-05-07 18:38 | 39.10143 | 23.14780 | 37108 ft | 467 kts | 133° |
| 2026-05-07 18:39 | 39.06644 | 23.20150 | 37114 ft | 468 kts | 133° |
| 2026-05-07 18:39 | 39.02457 | 23.26566 | 37120 ft | 468 kts | 133° |
| 2026-05-07 18:40 | 38.98295 | 23.32929 | 37126 ft | 468 kts | 133° |
| 2026-05-07 18:40 | 38.94093 | 23.39313 | 37126 ft | 468 kts | 133° |
| 2026-05-07 18:41 | 38.89890 | 23.45705 | 37101 ft | 469 kts | 133° |
| 2026-05-07 18:41 | 38.85675 | 23.52122 | 37105 ft | 470 kts | 133° |
| 2026-05-07 18:42 | 38.81434 | 23.58553 | 37114 ft | 471 kts | 133° |
| 2026-05-07 18:42 | 38.77191 | 23.64958 | 37120 ft | 472 kts | 133° |
| 2026-05-07 18:43 | 38.72941 | 23.71371 | 37124 ft | 472 kts | 133° |
| 2026-05-07 18:43 | 38.68711 | 23.77746 | 37121 ft | 472 kts | 133° |
| 2026-05-07 18:44 | 38.64457 | 23.84149 | 37125 ft | 472 kts | 133° |
| 2026-05-07 18:44 | 38.60192 | 23.90548 | 37117 ft | 472 kts | 133° |
| 2026-05-07 18:45 | 38.55919 | 23.96940 | 37113 ft | 473 kts | 133° |
| 2026-05-07 18:45 | 38.51638 | 24.03327 | 37114 ft | 473 kts | 133° |
| 2026-05-07 18:46 | 38.47379 | 24.09689 | 37113 ft | 474 kts | 133° |
| 2026-05-07 18:46 | 38.43090 | 24.16110 | 37117 ft | 475 kts | 131° |
| 2026-05-07 18:47 | 38.39045 | 24.22816 | 37129 ft | 477 kts | 128° |
| 2026-05-07 18:47 | 38.35200 | 24.29703 | 37131 ft | 477 kts | 127° |
| 2026-05-07 18:48 | 38.31431 | 24.36399 | 37142 ft | 478 kts | 128° |
| 2026-05-07 18:48 | 38.27494 | 24.43211 | 37162 ft | 477 kts | 128° |
| 2026-05-07 18:49 | 38.23548 | 24.49960 | 37124 ft | 478 kts | 128° |
| 2026-05-07 18:49 | 38.19540 | 24.56817 | 37126 ft | 479 kts | 128° |
| 2026-05-07 18:50 | 38.15608 | 24.63558 | 37139 ft | 480 kts | 128° |
| 2026-05-07 18:50 | 38.11623 | 24.70370 | 37149 ft | 481 kts | 128° |
| 2026-05-07 18:51 | 38.07630 | 24.77182 | 37155 ft | 481 kts | 128° |
| 2026-05-07 18:51 | 38.03629 | 24.83993 | 37155 ft | 481 kts | 128° |
| 2026-05-07 18:52 | 37.99625 | 24.90798 | 37156 ft | 481 kts | 128° |
| 2026-05-07 18:52 | 37.95623 | 24.97594 | 37159 ft | 481 kts | 128° |
| 2026-05-07 18:53 | 37.91619 | 25.04383 | 37168 ft | 481 kts | 128° |
| 2026-05-07 18:53 | 37.87617 | 25.11158 | 37166 ft | 481 kts | 128° |
| 2026-05-07 18:54 | 37.83600 | 25.17919 | 37169 ft | 480 kts | 129° |
| 2026-05-07 18:54 | 37.79588 | 25.24648 | 37169 ft | 480 kts | 128° |
| 2026-05-07 18:55 | 37.75571 | 25.31386 | 37174 ft | 480 kts | 128° |
| 2026-05-07 18:55 | 37.71550 | 25.38126 | 37169 ft | 481 kts | 128° |
| 2026-05-07 18:56 | 37.67529 | 25.44868 | 37170 ft | 481 kts | 128° |
| 2026-05-07 18:56 | 37.63508 | 25.51583 | 37160 ft | 480 kts | 129° |
| 2026-05-07 18:57 | 37.59468 | 25.58301 | 37160 ft | 480 kts | 129° |
| 2026-05-07 18:57 | 37.55454 | 25.64969 | 37146 ft | 481 kts | 129° |
| 2026-05-07 18:58 | 37.51400 | 25.71698 | 37143 ft | 483 kts | 129° |
| 2026-05-07 18:58 | 37.47328 | 25.78441 | 37147 ft | 485 kts | 129° |
| 2026-05-07 18:59 | 37.43237 | 25.85199 | 37154 ft | 486 kts | 129° |
| 2026-05-07 18:59 | 37.39134 | 25.91957 | 37176 ft | 486 kts | 129° |
| 2026-05-07 19:00 | 37.35023 | 25.98721 | 37184 ft | 487 kts | 128° |
| 2026-05-07 19:00 | 37.30907 | 26.05480 | 37186 ft | 487 kts | 128° |
| 2026-05-07 19:01 | 37.26789 | 26.12233 | 37187 ft | 487 kts | 128° |
| 2026-05-07 19:01 | 37.22677 | 26.18950 | 37190 ft | 487 kts | 129° |
| 2026-05-07 19:02 | 37.18552 | 26.25678 | 37159 ft | 488 kts | 129° |
| 2026-05-07 19:02 | 37.14389 | 26.32454 | 37172 ft | 489 kts | 128° |
| 2026-05-07 19:03 | 37.10260 | 26.39169 | 37179 ft | 490 kts | 128° |
| 2026-05-07 19:03 | 37.06091 | 26.45932 | 37182 ft | 490 kts | 128° |
| 2026-05-07 19:04 | 37.01912 | 26.52688 | 37186 ft | 491 kts | 128° |
| 2026-05-07 19:04 | 36.97731 | 26.59442 | 37192 ft | 491 kts | 128° |
| 2026-05-07 19:05 | 36.93550 | 26.66194 | 37194 ft | 491 kts | 128° |
| 2026-05-07 19:05 | 36.89383 | 26.72898 | 37191 ft | 491 kts | 128° |
| 2026-05-07 19:06 | 36.85188 | 26.79624 | 37169 ft | 491 kts | 128° |
| 2026-05-07 19:06 | 36.78865 | 26.89748 | 37166 ft | 494 kts | 128° |
| 2026-05-07 19:07 | 36.74639 | 26.96504 | 37172 ft | 494 kts | 128° |
| 2026-05-07 19:07 | 36.70397 | 27.03262 | 37179 ft | 495 kts | 128° |
| 2026-05-07 19:08 | 36.66156 | 27.10017 | 37187 ft | 495 kts | 128° |
| 2026-05-07 19:08 | 36.61909 | 27.16765 | 37187 ft | 495 kts | 128° |
| 2026-05-07 19:09 | 36.57663 | 27.23504 | 37198 ft | 494 kts | 128° |
| 2026-05-07 19:09 | 36.53410 | 27.30225 | 37195 ft | 494 kts | 128° |
| 2026-05-07 19:10 | 36.49187 | 27.36885 | 37176 ft | 493 kts | 128° |
| 2026-05-07 19:10 | 36.44933 | 27.43589 | 37166 ft | 495 kts | 128° |
| 2026-05-07 19:11 | 36.40670 | 27.50305 | 37173 ft | 495 kts | 128° |
| 2026-05-07 19:11 | 36.36392 | 27.57015 | 37177 ft | 496 kts | 128° |
| 2026-05-07 19:12 | 36.32106 | 27.63723 | 37180 ft | 496 kts | 128° |
| 2026-05-07 19:12 | 36.27815 | 27.70423 | 37179 ft | 496 kts | 128° |
| 2026-05-07 19:13 | 36.23552 | 27.77074 | 37170 ft | 496 kts | 128° |
| 2026-05-07 19:13 | 36.19262 | 27.83763 | 37172 ft | 496 kts | 128° |
| 2026-05-07 19:14 | 36.14959 | 27.90449 | 37159 ft | 496 kts | 128° |
| 2026-05-07 19:14 | 36.10650 | 27.97125 | 37155 ft | 497 kts | 128° |
| 2026-05-07 19:15 | 36.06327 | 28.03809 | 37154 ft | 498 kts | 128° |
| 2026-05-07 19:15 | 36.01990 | 28.10501 | 37179 ft | 499 kts | 128° |
| 2026-05-07 19:16 | 35.97652 | 28.17190 | 37177 ft | 499 kts | 128° |
| 2026-05-07 19:16 | 35.93306 | 28.23885 | 37179 ft | 499 kts | 128° |
| 2026-05-07 19:17 | 35.88954 | 28.30561 | 37182 ft | 499 kts | 128° |
| 2026-05-07 19:17 | 35.84600 | 28.37242 | 37196 ft | 500 kts | 128° |
| 2026-05-07 19:18 | 35.80276 | 28.43866 | 37191 ft | 499 kts | 128° |
| 2026-05-07 19:18 | 35.75920 | 28.50521 | 37179 ft | 499 kts | 128° |
| 2026-05-07 19:19 | 35.71567 | 28.57162 | 37178 ft | 499 kts | 128° |
| 2026-05-07 19:19 | 35.67192 | 28.63805 | 37176 ft | 499 kts | 128° |
| 2026-05-07 19:20 | 35.62823 | 28.70431 | 37181 ft | 499 kts | 128° |
| 2026-05-07 19:20 | 35.58459 | 28.77054 | 37186 ft | 498 kts | 128° |
| 2026-05-07 19:21 | 35.54095 | 28.83657 | 37187 ft | 497 kts | 128° |
| 2026-05-07 19:21 | 35.49722 | 28.90239 | 37186 ft | 497 kts | 128° |
| 2026-05-07 19:22 | 35.45383 | 28.96774 | 37195 ft | 497 kts | 128° |
| 2026-05-07 19:22 | 35.40994 | 29.03379 | 37183 ft | 496 kts | 127° |
| 2026-05-07 19:23 | 35.36667 | 29.09874 | 37184 ft | 495 kts | 127° |
| 2026-05-07 19:23 | 35.32306 | 29.16410 | 37184 ft | 495 kts | 127° |
| 2026-05-07 19:24 | 35.27953 | 29.22925 | 37181 ft | 495 kts | 128° |
| 2026-05-07 19:24 | 35.23588 | 29.29437 | 37190 ft | 494 kts | 127° |
| 2026-05-07 19:25 | 35.19232 | 29.35927 | 37188 ft | 493 kts | 127° |
| 2026-05-07 19:25 | 35.14880 | 29.42391 | 37189 ft | 492 kts | 128° |
| 2026-05-07 19:26 | 35.10524 | 29.48847 | 37187 ft | 492 kts | 128° |
| 2026-05-07 19:26 | 35.06200 | 29.55244 | 37199 ft | 491 kts | 128° |
| 2026-05-07 19:27 | 35.01854 | 29.61676 | 37186 ft | 490 kts | 128° |
| 2026-05-07 19:27 | 34.97519 | 29.68087 | 37186 ft | 489 kts | 128° |
| 2026-05-07 19:28 | 34.93170 | 29.74492 | 37183 ft | 489 kts | 128° |
| 2026-05-07 19:28 | 34.88838 | 29.80868 | 37181 ft | 488 kts | 128° |
| 2026-05-07 19:29 | 34.85233 | 29.86160 | 37196 ft | 488 kts | 128° |
| 2026-05-07 19:29 | 34.80903 | 29.92514 | 37195 ft | 487 kts | 128° |
| 2026-05-07 19:30 | 34.76575 | 29.98835 | 37189 ft | 485 kts | 127° |
| 2026-05-07 19:30 | 34.72904 | 30.05672 | 37181 ft | 483 kts | 119° |
| 2026-05-07 19:31 | 34.69382 | 30.12616 | 37191 ft | 483 kts | 120° |
| 2026-05-07 19:31 | 34.65870 | 30.19503 | 37186 ft | 482 kts | 120° |
| 2026-05-07 19:32 | 34.62336 | 30.26416 | 37176 ft | 481 kts | 120° |
| 2026-05-07 19:32 | 34.58815 | 30.33317 | 37180 ft | 481 kts | 120° |
| 2026-05-07 19:33 | 34.55293 | 30.40213 | 37191 ft | 481 kts | 120° |
| 2026-05-07 19:33 | 34.51760 | 30.47100 | 37191 ft | 480 kts | 120° |
| 2026-05-07 19:34 | 34.48222 | 30.53966 | 37189 ft | 480 kts | 120° |
| 2026-05-07 19:34 | 34.44691 | 30.60820 | 37187 ft | 479 kts | 120° |
| 2026-05-07 19:35 | 34.41159 | 30.67669 | 37177 ft | 479 kts | 120° |
| 2026-05-07 19:35 | 34.37619 | 30.74521 | 37184 ft | 479 kts | 121° |
| 2026-05-07 19:36 | 34.34080 | 30.81354 | 37176 ft | 479 kts | 121° |
| 2026-05-07 19:36 | 34.30540 | 30.88173 | 37172 ft | 479 kts | 121° |
| 2026-05-07 19:37 | 34.26993 | 30.94991 | 37173 ft | 480 kts | 121° |
| 2026-05-07 19:37 | 34.23439 | 31.01813 | 37191 ft | 479 kts | 121° |
| 2026-05-07 19:38 | 34.19881 | 31.08617 | 37194 ft | 479 kts | 121° |
| 2026-05-07 19:38 | 34.16325 | 31.15421 | 37192 ft | 478 kts | 121° |
| 2026-05-07 19:39 | 34.12776 | 31.22215 | 37175 ft | 478 kts | 121° |
| 2026-05-07 19:39 | 34.09214 | 31.28993 | 37197 ft | 478 kts | 121° |
| 2026-05-07 19:40 | 34.05650 | 31.35752 | 37183 ft | 477 kts | 121° |
| 2026-05-07 19:40 | 34.02096 | 31.42501 | 37191 ft | 477 kts | 121° |
| 2026-05-07 19:41 | 33.98559 | 31.49206 | 37187 ft | 477 kts | 121° |
| 2026-05-07 19:41 | 33.94977 | 31.55990 | 37188 ft | 476 kts | 122° |
| 2026-05-07 19:42 | 33.91441 | 31.62669 | 37191 ft | 476 kts | 122° |
| 2026-05-07 19:42 | 33.87867 | 31.69375 | 37186 ft | 476 kts | 122° |
| 2026-05-07 19:43 | 33.84296 | 31.76084 | 37180 ft | 476 kts | 122° |
| 2026-05-07 19:43 | 33.80735 | 31.82789 | 37179 ft | 475 kts | 122° |
| 2026-05-07 19:44 | 33.77168 | 31.89474 | 37179 ft | 475 kts | 122° |
| 2026-05-07 19:44 | 33.73592 | 31.96159 | 37180 ft | 475 kts | 122° |
| 2026-05-07 19:45 | 33.70021 | 32.02831 | 37168 ft | 475 kts | 122° |
| 2026-05-07 19:45 | 33.66465 | 32.09461 | 37172 ft | 474 kts | 123° |
| 2026-05-07 19:46 | 33.62883 | 32.16111 | 37180 ft | 474 kts | 123° |
| 2026-05-07 19:46 | 33.59301 | 32.22753 | 37164 ft | 474 kts | 123° |
| 2026-05-07 19:47 | 33.55721 | 32.29397 | 37178 ft | 474 kts | 123° |
| 2026-05-07 19:47 | 33.52133 | 32.36033 | 37178 ft | 474 kts | 123° |
| 2026-05-07 19:48 | 33.48542 | 32.42666 | 37176 ft | 474 kts | 123° |
| 2026-05-07 19:48 | 33.44976 | 32.49246 | 37173 ft | 474 kts | 123° |
| 2026-05-07 19:49 | 33.43178 | 32.52557 | 37037 ft | 474 kts | 123° |
| 2026-05-07 19:49 | 33.41379 | 32.55861 | 36770 ft | 474 kts | 124° |
| 2026-05-07 19:49 | 33.39574 | 32.59171 | 36507 ft | 474 kts | 124° |
| 2026-05-07 19:49 | 33.37773 | 32.62470 | 36256 ft | 475 kts | 124° |
| 2026-05-07 19:50 | 33.35964 | 32.65783 | 35999 ft | 475 kts | 124° |
| 2026-05-07 19:50 | 33.34153 | 32.69096 | 35746 ft | 476 kts | 124° |
| 2026-05-07 19:50 | 33.32339 | 32.72420 | 35502 ft | 477 kts | 124° |
| 2026-05-07 19:50 | 33.30525 | 32.75747 | 35252 ft | 478 kts | 124° |
| 2026-05-07 19:51 | 33.28696 | 32.79092 | 34513 ft | 484 kts | 124° |
| 2026-05-07 19:51 | 33.26835 | 32.82484 | 33589 ft | 491 kts | 124° |
| 2026-05-07 19:51 | 33.24953 | 32.85906 | 32733 ft | 495 kts | 124° |
| 2026-05-07 19:51 | 33.23078 | 32.89317 | 32278 ft | 489 kts | 124° |
| 2026-05-07 19:52 | 33.21212 | 32.92718 | 31670 ft | 487 kts | 125° |
| 2026-05-07 19:52 | 33.19362 | 32.96097 | 31105 ft | 485 kts | 125° |
| 2026-05-07 19:52 | 33.17544 | 32.99409 | 30540 ft | 482 kts | 126° |
| 2026-05-07 19:52 | 33.15650 | 33.02655 | 30358 ft | 470 kts | 128° |
| 2026-05-07 19:53 | 33.13704 | 33.05716 | 30248 ft | 456 kts | 131° |
| 2026-05-07 19:53 | 33.11747 | 33.08621 | 30132 ft | 443 kts | 132° |
| 2026-05-07 19:53 | 33.09815 | 33.11414 | 30011 ft | 431 kts | 132° |
| 2026-05-07 19:53 | 33.07905 | 33.14172 | 29530 ft | 431 kts | 132° |
| 2026-05-07 19:54 | 33.06011 | 33.16945 | 29012 ft | 431 kts | 131° |
| 2026-05-07 19:54 | 33.04146 | 33.19733 | 28491 ft | 430 kts | 130° |
| 2026-05-07 19:54 | 33.02295 | 33.22538 | 27990 ft | 430 kts | 130° |
| 2026-05-07 19:54 | 33.00460 | 33.25337 | 27474 ft | 429 kts | 130° |
| 2026-05-07 19:55 | 32.98623 | 33.28141 | 26970 ft | 429 kts | 129° |
| 2026-05-07 19:55 | 32.96784 | 33.30935 | 26483 ft | 428 kts | 129° |
| 2026-05-07 19:55 | 32.94944 | 33.33720 | 25989 ft | 428 kts | 129° |
| 2026-05-07 19:55 | 32.93105 | 33.36498 | 25525 ft | 427 kts | 129° |
| 2026-05-07 19:56 | 32.91265 | 33.39268 | 25050 ft | 426 kts | 129° |
| 2026-05-07 19:56 | 32.89427 | 33.42033 | 24589 ft | 426 kts | 129° |
| 2026-05-07 19:56 | 32.87594 | 33.44798 | 24112 ft | 425 kts | 129° |
| 2026-05-07 19:56 | 32.85761 | 33.47560 | 23652 ft | 424 kts | 128° |